Time;durP1;ratioP1;P1;durP2;ratioP2;P2;SDS_P1;SDS_P2;PMS_P1;PMS_P2;Temp;Humidity;BMP_temperature;BMP_pressure;BME280_temperature;BME280_humidity;BME280_pressure;Samples;Min_cycle;Max_cycle;Signal;HPM_P1;HPM_P2
2023/04/10 00:00:44;;;;;;;2.63;2.23;;;;;;;;;;5072580;28;20251;-87
2023/04/10 00:03:16;;;;;;;1.57;1.47;;;;;;;;;;5071699;28;20198;-87
2023/04/10 00:05:45;;;;;;;3.47;3.23;;;;;;;;;;5071928;28;20238;-87
2023/04/10 00:08:13;;;;;;;6.10;3.30;;;;;;;;;;5072183;28;20255;-88
2023/04/10 00:10:42;;;;;;;3.20;2.90;;;;;;;;;;5071757;28;20231;-87
2023/04/10 00:13:10;;;;;;;8.93;7.40;;;;;;;;;;5071803;28;20213;-87
2023/04/10 00:15:39;;;;;;;11.57;8.77;;;;;;;;;;5072224;28;20240;-86
2023/04/10 00:18:07;;;;;;;13.60;10.03;;;;;;;;;;5071758;28;20211;-87
2023/04/10 00:20:37;;;;;;;4.80;3.07;;;;;;;;;;5071539;28;20200;-87
2023/04/10 00:23:05;;;;;;;9.37;7.17;;;;;;;;;;5071647;28;20231;-87
2023/04/10 00:25:34;;;;;;;12.13;10.60;;;;;;;;;;5071574;28;20266;-87
2023/04/10 00:28:02;;;;;;;10.90;8.17;;;;;;;;;;5071504;28;20271;-87
2023/04/10 00:30:31;;;;;;;12.10;10.33;;;;;;;;;;5071664;28;20242;-87
2023/04/10 00:32:59;;;;;;;10.73;9.63;;;;;;;;;;5071599;28;20200;-87
2023/04/10 00:35:27;;;;;;;10.73;9.60;;;;;;;;;;5071192;28;20226;-87
2023/04/10 00:37:57;;;;;;;11.33;9.00;;;;;;;;;;5071394;28;20200;-87
2023/04/10 00:40:29;;;;;;;11.17;8.83;;;;;;;;;;5070749;28;20204;-87
2023/04/10 00:42:57;;;;;;;11.80;10.43;;;;;;;;;;5071601;28;20213;-87
2023/04/10 00:45:26;;;;;;;12.20;10.97;;;;;;;;;;5071531;28;20210;-87
2023/04/10 00:47:54;;;;;;;10.50;8.77;;;;;;;;;;5072011;28;20209;-87
2023/04/10 00:50:23;;;;;;;11.50;8.80;;;;;;;;;;5071226;28;20204;-87
2023/04/10 00:52:52;;;;;;;4.73;3.83;;;;;;;;;;5071832;28;20299;-87
2023/04/10 00:55:22;;;;;;;14.30;9.57;;;;;;;;;;5071310;28;20259;-87
2023/04/10 00:57:50;;;;;;;11.87;9.17;;;;;;;;;;5071578;28;20197;-87
2023/04/10 01:00:19;;;;;;;10.43;7.33;;;;;;;;;;5071384;28;20202;-87
2023/04/10 01:02:47;;;;;;;10.70;7.43;;;;;;;;;;5071320;28;20288;-87
2023/04/10 01:05:16;;;;;;;13.40;7.03;;;;;;;;;;5071016;28;20221;-88
2023/04/10 01:07:51;;;;;;;6.13;4.77;;;;;;;;;;5071396;28;20203;-87
2023/04/10 01:10:27;;;;;;;9.77;5.37;;;;;;;;;;5071130;28;20204;-87
2023/04/10 01:12:59;;;;;;;12.63;9.97;;;;;;;;;;5071374;28;20207;-87
2023/04/10 01:15:29;;;;;;;9.47;7.93;;;;;;;;;;5071161;28;20215;-87
2023/04/10 01:18:00;;;;;;;10.80;9.17;;;;;;;;;;5071646;28;20296;-87
2023/04/10 01:20:30;;;;;;;11.90;9.30;;;;;;;;;;5070613;28;20218;-87
2023/04/10 01:23:13;;;;;;;9.00;7.43;;;;;;;;;;5071433;28;20208;-87
2023/04/10 01:25:47;;;;;;;10.40;9.03;;;;;;;;;;5070714;28;20281;-87
2023/04/10 01:28:30;;;;;;;12.37;9.80;;;;;;;;;;5071459;28;20306;-86
2023/04/10 01:31:01;;;;;;;10.67;8.00;;;;;;;;;;5070920;28;20265;-88
2023/04/10 01:33:33;;;;;;;11.90;8.90;;;;;;;;;;5070911;28;20239;-86
2023/04/10 01:36:03;;;;;;;6.77;4.97;;;;;;;;;;5070856;28;20203;-87
2023/04/10 01:38:32;;;;;;;5.43;4.50;;;;;;;;;;5071026;28;20212;-87
2023/04/10 01:41:01;;;;;;;5.70;4.83;;;;;;;;;;5070703;28;20279;-87
2023/04/10 01:43:31;;;;;;;14.23;9.63;;;;;;;;;;5070741;28;20196;-87
2023/04/10 01:46:02;;;;;;;9.90;6.80;;;;;;;;;;5070646;28;20227;-87
2023/04/10 01:48:30;;;;;;;13.00;10.73;;;;;;;;;;5071041;28;20192;-87
2023/04/10 01:51:00;;;;;;;12.97;10.17;;;;;;;;;;5070714;28;20200;-88
2023/04/10 01:53:29;;;;;;;15.37;10.53;;;;;;;;;;5074298;28;20208;-87
2023/04/10 01:55:58;;;;;;;11.73;10.17;;;;;;;;;;5074355;28;20197;-87
2023/04/10 01:58:26;;;;;;;15.93;11.77;;;;;;;;;;5074028;28;20208;-88
2023/04/10 02:00:54;;;;;;;14.43;12.03;;;;;;;;;;5073985;28;20274;-87
2023/04/10 02:03:24;;;;;;;12.87;10.83;;;;;;;;;;5074216;28;20200;-88
2023/04/10 02:05:57;;;;;;;13.47;11.07;;;;;;;;;;5073804;28;20214;-88
2023/04/10 02:08:30;;;;;;;13.33;12.03;;;;;;;;;;5073975;28;20244;-87
2023/04/10 02:11:02;;;;;;;11.67;9.87;;;;;;;;;;5074214;28;20299;-87
2023/04/10 02:13:31;;;;;;;13.10;11.63;;;;;;;;;;5074013;28;20212;-87
2023/04/10 02:16:00;;;;;;;8.77;7.13;;;;;;;;;;5074238;28;20207;-87
2023/04/10 02:18:34;;;;;;;14.10;11.00;;;;;;;;;;5074135;28;20206;-87
2023/04/10 02:21:03;;;;;;;11.60;10.27;;;;;;;;;;5073764;28;20222;-88
2023/04/10 02:23:31;;;;;;;12.33;11.07;;;;;;;;;;5074558;28;20321;-88
2023/04/10 02:26:06;;;;;;;13.10;9.53;;;;;;;;;;5074047;28;20225;-88
2023/04/10 02:28:34;;;;;;;9.37;7.93;;;;;;;;;;5074044;28;20274;-87
2023/04/10 02:31:03;;;;;;;9.37;7.33;;;;;;;;;;5073639;28;20320;-88
2023/04/10 02:33:32;;;;;;;11.03;8.77;;;;;;;;;;5073954;28;20208;-87
2023/04/10 02:36:01;;;;;;;11.37;9.93;;;;;;;;;;5073714;28;20227;-88
2023/04/10 02:38:29;;;;;;;11.87;9.63;;;;;;;;;;5074365;28;20219;-87
2023/04/10 02:40:58;;;;;;;11.20;9.40;;;;;;;;;;5073901;28;20207;-88
2023/04/10 02:43:26;;;;;;;11.17;9.93;;;;;;;;;;5073704;28;20276;-87
2023/04/10 02:45:56;;;;;;;11.77;10.50;;;;;;;;;;5073385;28;20215;-87
2023/04/10 02:48:24;;;;;;;11.00;9.33;;;;;;;;;;5073875;28;20269;-87
2023/04/10 02:50:57;;;;;;;15.17;11.57;;;;;;;;;;5073727;28;20200;-87
2023/04/10 02:53:26;;;;;;;13.57;11.87;;;;;;;;;;5073069;28;20294;-87
2023/04/10 02:55:54;;;;;;;14.50;10.57;;;;;;;;;;5073141;28;20322;-88
2023/04/10 02:58:26;;;;;;;13.60;9.20;;;;;;;;;;5072994;28;20204;-87
2023/04/10 03:00:55;;;;;;;6.30;5.70;;;;;;;;;;5073021;28;20199;-87
2023/04/10 03:03:24;;;;;;;12.03;9.73;;;;;;;;;;5073096;28;20196;-87
2023/04/10 03:05:52;;;;;;;11.90;9.23;;;;;;;;;;5072906;28;20310;-88
2023/04/10 03:08:22;;;;;;;13.57;11.37;;;;;;;;;;5072721;28;20236;-88
2023/04/10 03:10:51;;;;;;;13.63;9.57;;;;;;;;;;5072922;28;20233;-88
2023/04/10 03:13:19;;;;;;;14.60;10.90;;;;;;;;;;5072775;28;20241;-88
2023/04/10 03:15:47;;;;;;;12.50;10.03;;;;;;;;;;5072769;28;20211;-87
2023/04/10 03:18:16;;;;;;;14.33;12.60;;;;;;;;;;5072807;28;20197;-87
2023/04/10 03:20:44;;;;;;;11.57;9.83;;;;;;;;;;5072839;28;20289;-87
2023/04/10 03:23:12;;;;;;;10.47;9.00;;;;;;;;;;5072448;28;20209;-88
2023/04/10 03:25:43;;;;;;;12.80;11.53;;;;;;;;;;5072572;28;20298;-88
2023/04/10 03:28:11;;;;;;;12.90;11.50;;;;;;;;;;5072498;28;20222;-87
2023/04/10 03:30:39;;;;;;;12.43;11.00;;;;;;;;;;5072487;28;20203;-87
2023/04/10 03:33:08;;;;;;;11.40;10.03;;;;;;;;;;5072480;28;20206;-87
2023/04/10 03:35:36;;;;;;;12.80;10.83;;;;;;;;;;5072335;28;20268;-87
2023/04/10 03:38:04;;;;;;;12.07;10.53;;;;;;;;;;5072435;28;20207;-87
2023/04/10 03:40:33;;;;;;;12.70;11.27;;;;;;;;;;5072363;28;20214;-87
2023/04/10 03:43:03;;;;;;;10.03;8.63;;;;;;;;;;5072396;28;20200;-88
2023/04/10 03:45:31;;;;;;;13.20;11.03;;;;;;;;;;5072311;28;20216;-88
2023/04/10 03:47:59;;;;;;;11.70;9.53;;;;;;;;;;5071938;28;20335;-87
2023/04/10 03:50:28;;;;;;;14.50;12.40;;;;;;;;;;5072256;28;20199;-87
2023/04/10 03:52:56;;;;;;;11.57;8.93;;;;;;;;;;5072362;28;20229;-87
2023/04/10 03:55:25;;;;;;;11.53;10.33;;;;;;;;;;5072113;28;20292;-87
2023/04/10 03:57:53;;;;;;;14.30;11.07;;;;;;;;;;5072268;28;20198;-87
2023/04/10 04:00:25;;;;;;;11.43;10.27;;;;;;;;;;5071885;28;20206;-87
2023/04/10 04:02:54;;;;;;;13.00;10.30;;;;;;;;;;5071767;28;20199;-87
2023/04/10 04:05:22;;;;;;;9.63;8.67;;;;;;;;;;5072408;28;20298;-87
2023/04/10 04:07:51;;;;;;;11.97;9.83;;;;;;;;;;5072017;28;20247;-87
2023/04/10 04:10:19;;;;;;;13.07;11.00;;;;;;;;;;5071788;28;20199;-87
2023/04/10 04:12:47;;;;;;;13.23;11.87;;;;;;;;;;5072477;28;20226;-87
2023/04/10 04:15:16;;;;;;;13.40;11.77;;;;;;;;;;5071300;28;20230;-87
2023/04/10 04:17:46;;;;;;;12.20;10.00;;;;;;;;;;5071677;28;20279;-87
2023/04/10 04:20:14;;;;;;;10.73;9.57;;;;;;;;;;5072185;28;20202;-87
2023/04/10 04:22:43;;;;;;;12.23;10.87;;;;;;;;;;5071682;28;20198;-87
2023/04/10 04:25:11;;;;;;;5.43;4.80;;;;;;;;;;5071593;28;20204;-87
2023/04/10 04:27:40;;;;;;;12.20;10.80;;;;;;;;;;5071453;28;20268;-87
2023/04/10 04:30:09;;;;;;;11.87;10.33;;;;;;;;;;5072078;28;20205;-87
2023/04/10 04:32:39;;;;;;;11.00;9.37;;;;;;;;;;5071425;28;20206;-87
2023/04/10 04:35:09;;;;;;;10.90;9.90;;;;;;;;;;5071648;28;20249;-87
2023/04/10 04:37:38;;;;;;;7.60;6.00;;;;;;;;;;5071618;28;20211;-87
2023/04/10 04:40:07;;;;;;;10.97;9.77;;;;;;;;;;5071328;28;20206;-87
2023/04/10 04:42:36;;;;;;;10.70;9.60;;;;;;;;;;5071700;28;20199;-87
2023/04/10 04:45:04;;;;;;;11.67;10.57;;;;;;;;;;5071905;28;20235;-87
2023/04/10 04:47:33;;;;;;;12.37;11.03;;;;;;;;;;5071255;28;20277;-87
2023/04/10 04:50:01;;;;;;;11.67;10.47;;;;;;;;;;5071466;28;20200;-87
2023/04/10 04:52:34;;;;;;;7.80;7.07;;;;;;;;;;5070977;28;20252;-87
2023/04/10 04:55:02;;;;;;;11.17;9.97;;;;;;;;;;5071079;28;20241;-87
2023/04/10 04:57:31;;;;;;;11.80;10.53;;;;;;;;;;5071736;28;20285;-87
2023/04/10 05:00:00;;;;;;;11.57;9.87;;;;;;;;;;5071184;28;20200;-87
2023/04/10 05:02:29;;;;;;;12.13;10.83;;;;;;;;;;5071167;28;20296;-87
2023/04/10 05:04:57;;;;;;;11.40;10.20;;;;;;;;;;5071432;28;20201;-87
2023/04/10 05:07:26;;;;;;;10.80;9.33;;;;;;;;;;5071016;28;20284;-87
2023/04/10 05:09:56;;;;;;;10.57;9.30;;;;;;;;;;5071238;28;20238;-87
2023/04/10 05:12:24;;;;;;;10.70;9.63;;;;;;;;;;5071428;28;20241;-88
2023/04/10 05:14:53;;;;;;;11.33;10.23;;;;;;;;;;5071081;28;20227;-87
2023/04/10 05:17:21;;;;;;;11.23;10.20;;;;;;;;;;5071393;28;20210;-87
2023/04/10 05:19:49;;;;;;;10.47;8.93;;;;;;;;;;5070820;28;20200;-87
2023/04/10 05:22:18;;;;;;;11.17;9.93;;;;;;;;;;5070961;28;20195;-88
2023/04/10 05:24:46;;;;;;;12.03;10.43;;;;;;;;;;5071138;28;20203;-87
2023/04/10 05:27:18;;;;;;;11.30;10.20;;;;;;;;;;5074345;28;20250;-88
2023/04/10 05:29:46;;;;;;;11.37;10.37;;;;;;;;;;5074753;28;20271;-87
2023/04/10 05:32:14;;;;;;;11.80;9.13;;;;;;;;;;5074977;28;20191;-87
2023/04/10 05:34:43;;;;;;;8.00;7.20;;;;;;;;;;5074565;28;20270;-87
2023/04/10 05:37:11;;;;;;;8.90;8.00;;;;;;;;;;5074843;28;20199;-87
2023/04/10 05:39:40;;;;;;;10.23;9.20;;;;;;;;;;5074697;28;20212;-87
2023/04/10 05:42:08;;;;;;;10.30;9.40;;;;;;;;;;5074235;28;20195;-87
2023/04/10 05:44:38;;;;;;;10.50;9.30;;;;;;;;;;5074846;28;20232;-87
2023/04/10 05:47:06;;;;;;;9.67;8.77;;;;;;;;;;5074556;28;20224;-87
2023/04/10 05:49:35;;;;;;;8.17;7.40;;;;;;;;;;5074347;28;20209;-87
2023/04/10 05:52:03;;;;;;;10.40;9.40;;;;;;;;;;5074408;28;20257;-87
2023/04/10 05:54:32;;;;;;;10.40;9.40;;;;;;;;;;5074557;28;20298;-87
2023/04/10 05:57:00;;;;;;;10.10;9.10;;;;;;;;;;5073838;28;20199;-86
2023/04/10 05:59:29;;;;;;;10.50;9.50;;;;;;;;;;5074228;28;20204;-88
2023/04/10 06:01:59;;;;;;;11.67;10.50;;;;;;;;;;5074527;28;20202;-87
2023/04/10 06:04:27;;;;;;;9.87;8.90;;;;;;;;;;5074054;28;20208;-87
2023/04/10 06:06:57;;;;;;;9.53;8.63;;;;;;;;;;5074105;28;20196;-87
2023/04/10 06:09:25;;;;;;;8.70;7.90;;;;;;;;;;5074142;28;20252;-87
2023/04/10 06:11:55;;;;;;;9.67;8.67;;;;;;;;;;5074216;28;20204;-87
2023/04/10 06:14:23;;;;;;;6.93;5.43;;;;;;;;;;5074237;28;20310;-87
2023/04/10 06:16:52;;;;;;;8.97;8.07;;;;;;;;;;5074028;28;20208;-87
2023/04/10 06:19:22;;;;;;;7.03;6.20;;;;;;;;;;5073853;28;20192;-87
2023/04/10 06:21:50;;;;;;;8.10;6.63;;;;;;;;;;5073925;28;20229;-87
2023/04/10 06:24:21;;;;;;;7.30;6.53;;;;;;;;;;5074057;28;20212;-87
2023/04/10 06:26:50;;;;;;;8.50;7.60;;;;;;;;;;5074088;28;20273;-87
2023/04/10 06:29:18;;;;;;;5.47;4.97;;;;;;;;;;5073897;28;20313;-87
2023/04/10 06:31:47;;;;;;;6.50;5.83;;;;;;;;;;5074346;28;20200;-87
2023/04/10 06:34:15;;;;;;;7.13;6.30;;;;;;;;;;5074089;28;20305;-87
2023/04/10 06:36:45;;;;;;;8.53;7.67;;;;;;;;;;5073013;28;20271;-87
2023/04/10 06:39:13;;;;;;;8.20;7.17;;;;;;;;;;5073586;28;20289;-88
2023/04/10 06:41:41;;;;;;;4.90;4.37;;;;;;;;;;5073827;28;20200;-86
2023/04/10 06:44:10;;;;;;;6.53;5.83;;;;;;;;;;5073562;28;20216;-86
2023/04/10 06:46:39;;;;;;;11.67;7.00;;;;;;;;;;5073833;28;20198;-86
2023/04/10 06:49:07;;;;;;;10.40;8.73;;;;;;;;;;5073205;28;20234;-87
2023/04/10 06:51:36;;;;;;;9.57;8.67;;;;;;;;;;5073394;28;20201;-86
2023/04/10 06:54:06;;;;;;;9.17;8.27;;;;;;;;;;5073999;28;20316;-86
2023/04/10 06:56:34;;;;;;;8.93;8.03;;;;;;;;;;5073310;28;20192;-86
2023/04/10 06:59:03;;;;;;;10.03;9.20;;;;;;;;;;5072916;28;20299;-86
2023/04/10 07:01:31;;;;;;;9.63;8.80;;;;;;;;;;5073141;28;20201;-87
2023/04/10 07:03:59;;;;;;;9.27;8.47;;;;;;;;;;5073119;28;20300;-86
2023/04/10 07:06:28;;;;;;;5.97;5.23;;;;;;;;;;5072541;28;20228;-86
2023/04/10 07:08:57;;;;;;;8.27;7.43;;;;;;;;;;5073532;28;20254;-86
2023/04/10 07:11:26;;;;;;;7.70;5.97;;;;;;;;;;5072713;28;20202;-87
2023/04/10 07:13:57;;;;;;;9.63;8.80;;;;;;;;;;5072462;28;20202;-86
2023/04/10 07:16:26;;;;;;;9.50;7.97;;;;;;;;;;5072657;28;20186;-86
2023/04/10 07:18:54;;;;;;;9.60;8.70;;;;;;;;;;5072994;28;20197;-87
2023/04/10 07:21:24;;;;;;;7.43;6.70;;;;;;;;;;5072655;28;20209;-87
2023/04/10 07:23:52;;;;;;;6.23;5.40;;;;;;;;;;5073033;28;20210;-87
2023/04/10 07:26:20;;;;;;;9.10;8.30;;;;;;;;;;5072663;28;20232;-87
2023/04/10 07:28:50;;;;;;;9.33;8.43;;;;;;;;;;5072617;28;20248;-87
2023/04/10 07:31:19;;;;;;;7.07;6.37;;;;;;;;;;5072713;28;20301;-87
2023/04/10 07:33:47;;;;;;;11.10;8.23;;;;;;;;;;5072510;28;20207;-88
2023/04/10 07:36:16;;;;;;;9.17;7.73;;;;;;;;;;5072601;28;20189;-87
2023/04/10 07:38:45;;;;;;;6.33;5.53;;;;;;;;;;5072405;28;20258;-87
2023/04/10 07:41:13;;;;;;;8.37;7.57;;;;;;;;;;5072225;28;20197;-87
2023/04/10 07:43:41;;;;;;;5.50;4.63;;;;;;;;;;5072895;28;20259;-87
2023/04/10 07:46:11;;;;;;;8.63;6.50;;;;;;;;;;5072106;28;20202;-87
2023/04/10 07:48:40;;;;;;;7.57;6.73;;;;;;;;;;5071257;28;20213;-87
2023/04/10 07:51:09;;;;;;;10.37;9.40;;;;;;;;;;5071985;28;20241;-87
2023/04/10 07:53:37;;;;;;;8.00;7.30;;;;;;;;;;5072411;28;20186;-87
2023/04/10 07:56:06;;;;;;;10.17;9.03;;;;;;;;;;5072401;28;20275;-87
2023/04/10 07:58:35;;;;;;;10.30;9.30;;;;;;;;;;5072414;28;20288;-87
2023/04/10 08:01:03;;;;;;;7.60;6.80;;;;;;;;;;5071716;28;20228;-87
2023/04/10 08:03:38;;;;;;;9.87;8.97;;;;;;;;;;5072106;28;20263;-87
2023/04/10 08:06:08;;;;;;;7.70;6.53;;;;;;;;;;5072011;28;20296;-87
2023/04/10 08:08:37;;;;;;;9.50;8.57;;;;;;;;;;5071728;28;20237;-88
2023/04/10 08:11:07;;;;;;;9.90;8.90;;;;;;;;;;5072160;28;20206;-87
2023/04/10 08:13:36;;;;;;;8.77;7.20;;;;;;;;;;5071902;28;20262;-87
2023/04/10 08:16:04;;;;;;;9.63;8.73;;;;;;;;;;5071654;28;20236;-87
2023/04/10 08:18:34;;;;;;;7.77;6.10;;;;;;;;;;5071503;28;20208;-88
2023/04/10 08:21:02;;;;;;;7.93;7.23;;;;;;;;;;5071766;28;20292;-87
2023/04/10 08:23:31;;;;;;;10.53;8.30;;;;;;;;;;5071318;28;20198;-87
2023/04/10 08:25:59;;;;;;;8.00;7.00;;;;;;;;;;5071845;28;20202;-87
2023/04/10 08:28:28;;;;;;;8.77;7.97;;;;;;;;;;5071747;28;20221;-87
2023/04/10 08:30:56;;;;;;;7.87;7.17;;;;;;;;;;5071363;28;20198;-87
2023/04/10 08:33:25;;;;;;;8.97;7.57;;;;;;;;;;5071554;28;20200;-87
2023/04/10 08:35:54;;;;;;;8.87;7.97;;;;;;;;;;5071899;28;20233;-87
2023/04/10 08:38:23;;;;;;;6.70;6.07;;;;;;;;;;5071520;28;20198;-86
2023/04/10 08:40:52;;;;;;;7.93;7.20;;;;;;;;;;5071249;28;20236;-86
2023/04/10 08:43:20;;;;;;;9.23;8.33;;;;;;;;;;5071682;28;20232;-87
2023/04/10 08:45:49;;;;;;;10.23;9.23;;;;;;;;;;5071220;28;20296;-87
2023/04/10 08:48:19;;;;;;;9.90;8.93;;;;;;;;;;5071104;28;20217;-86
2023/04/10 08:50:48;;;;;;;10.27;9.37;;;;;;;;;;5071399;28;20248;-86
2023/04/10 08:53:20;;;;;;;5.57;5.07;;;;;;;;;;5071085;28;20292;-86
2023/04/10 08:55:49;;;;;;;8.57;7.67;;;;;;;;;;5071783;28;20201;-87
2023/04/10 08:58:17;;;;;;;10.90;9.87;;;;;;;;;;5070930;28;20194;-86
2023/04/10 09:00:46;;;;;;;9.80;8.83;;;;;;;;;;5073393;28;20193;-86
2023/04/10 09:03:15;;;;;;;5.20;4.70;;;;;;;;;;5075356;28;20219;-86
2023/04/10 09:05:44;;;;;;;8.87;7.97;;;;;;;;;;5075464;28;20247;-86
2023/04/10 09:08:12;;;;;;;8.40;7.27;;;;;;;;;;5075141;28;20205;-86
2023/04/10 09:10:42;;;;;;;9.60;8.63;;;;;;;;;;5074533;28;20240;-86
2023/04/10 09:13:10;;;;;;;8.77;7.87;;;;;;;;;;5075216;28;20337;-86
2023/04/10 09:15:57;;;;;;;10.43;8.90;;;;;;;;;;5075005;28;20247;-87
2023/04/10 09:18:40;;;;;;;10.70;9.23;;;;;;;;;;5074975;28;20201;-86
2023/04/10 09:21:09;;;;;;;9.13;8.33;;;;;;;;;;5075209;28;20198;-86
2023/04/10 09:23:37;;;;;;;9.13;8.33;;;;;;;;;;5075276;28;20235;-86
2023/04/10 09:26:22;;;;;;;9.77;8.87;;;;;;;;;;5074945;28;20233;-86
2023/04/10 09:28:57;;;;;;;9.90;8.93;;;;;;;;;;5075040;28;20205;-86
2023/04/10 09:31:33;;;;;;;8.37;7.50;;;;;;;;;;5074911;28;20213;-86
2023/04/10 09:34:08;;;;;;;8.47;7.70;;;;;;;;;;5074338;28;20252;-87
2023/04/10 09:36:37;;;;;;;7.33;6.53;;;;;;;;;;5074823;28;20198;-86
2023/04/10 09:39:05;;;;;;;10.43;9.33;;;;;;;;;;5074695;28;20205;-86
2023/04/10 09:41:35;;;;;;;8.40;7.40;;;;;;;;;;5074735;28;20270;-86
2023/04/10 09:44:07;;;;;;;7.83;7.07;;;;;;;;;;5074514;28;20273;-87
2023/04/10 09:46:36;;;;;;;6.90;6.07;;;;;;;;;;5074539;28;20198;-87
2023/04/10 09:49:06;;;;;;;9.27;6.87;;;;;;;;;;5074574;28;20203;-87
2023/04/10 09:51:35;;;;;;;6.40;5.80;;;;;;;;;;5074355;28;20198;-87
2023/04/10 09:54:03;;;;;;;11.27;10.27;;;;;;;;;;5074674;28;20233;-87
2023/04/10 09:56:35;;;;;;;9.20;5.67;;;;;;;;;;5074446;28;20267;-87
2023/04/10 09:59:06;;;;;;;8.47;7.67;;;;;;;;;;5074684;28;20194;-87
2023/04/10 10:01:36;;;;;;;8.10;6.03;;;;;;;;;;5074942;28;20198;-87
2023/04/10 10:04:05;;;;;;;7.70;6.07;;;;;;;;;;5074080;28;20343;-88
2023/04/10 10:06:34;;;;;;;9.63;8.73;;;;;;;;;;5074446;28;20205;-88
2023/04/10 10:09:03;;;;;;;8.90;8.10;;;;;;;;;;5074380;28;20206;-87
2023/04/10 10:11:34;;;;;;;8.87;7.33;;;;;;;;;;5073256;28;20205;-88
2023/04/10 10:14:03;;;;;;;7.57;6.37;;;;;;;;;;5073593;28;20236;-87
2023/04/10 10:16:36;;;;;;;8.07;7.27;;;;;;;;;;5074472;28;20277;-87
2023/04/10 10:19:10;;;;;;;10.03;8.70;;;;;;;;;;5074228;28;20247;-87
2023/04/10 10:21:39;;;;;;;9.20;8.40;;;;;;;;;;5074303;28;20292;-88
2023/04/10 10:24:09;;;;;;;8.27;7.47;;;;;;;;;;5073391;28;20201;-87
2023/04/10 10:26:39;;;;;;;11.73;10.73;;;;;;;;;;5073664;28;20219;-87
2023/04/10 10:29:09;;;;;;;11.93;8.87;;;;;;;;;;5073922;28;20235;-87
2023/04/10 10:31:40;;;;;;;10.53;9.63;;;;;;;;;;5073714;28;20222;-87
2023/04/10 10:34:09;;;;;;;9.67;7.77;;;;;;;;;;5073527;28;20231;-87
2023/04/10 10:36:38;;;;;;;10.27;9.13;;;;;;;;;;5074041;28;20197;-87
2023/04/10 10:39:14;;;;;;;12.10;11.00;;;;;;;;;;5074242;28;20224;-87
2023/04/10 10:45:10;;;;;;;9.77;8.77;;;;;;;;;;5073279;28;20175;-87
2023/04/10 10:47:41;;;;;;;14.50;13.20;;;;;;;;;;5073540;28;20205;-87
2023/04/10 10:50:10;;;;;;;15.23;13.83;;;;;;;;;;5073247;28;20214;-87
2023/04/10 10:52:43;;;;;;;12.73;11.43;;;;;;;;;;5073670;28;20224;-87
2023/04/10 10:55:36;;;;;;;13.63;12.43;;;;;;;;;;5073406;28;20202;-87
2023/04/10 10:58:05;;;;;;;14.77;13.37;;;;;;;;;;5073203;28;20221;-87
2023/04/10 11:00:53;;;;;;;21.13;18.97;;;;;;;;;;5073425;28;20203;-87
2023/04/10 11:03:29;;;;;;;21.77;19.23;;;;;;;;;;5073407;28;20213;-86
2023/04/10 11:05:59;;;;;;;14.77;13.23;;;;;;;;;;5073107;28;20202;-86
2023/04/10 11:08:45;;;;;;;20.20;18.00;;;;;;;;;;5072976;28;20239;-86
2023/04/10 11:11:18;;;;;;;17.03;15.30;;;;;;;;;;5072837;28;20229;-86
2023/04/10 11:14:06;;;;;;;15.97;14.30;;;;;;;;;;5072822;28;20202;-86
2023/04/10 11:16:44;;;;;;;19.97;18.13;;;;;;;;;;5072762;28;20189;-86
2023/04/10 11:19:15;;;;;;;16.67;14.93;;;;;;;;;;5073028;28;20244;-86
2023/04/10 11:22:01;;;;;;;18.00;14.53;;;;;;;;;;5072734;28;20190;-86
2023/04/10 11:24:30;;;;;;;16.20;14.60;;;;;;;;;;5072739;28;20228;-86
2023/04/10 11:26:58;;;;;;;19.53;17.93;;;;;;;;;;5073062;28;20227;-87
2023/04/10 11:29:35;;;;;;;18.67;16.87;;;;;;;;;;5072413;28;20233;-87
2023/04/10 11:32:04;;;;;;;15.03;13.47;;;;;;;;;;5072487;28;20226;-87
2023/04/10 11:34:35;;;;;;;22.00;20.20;;;;;;;;;;5072509;28;20243;-87
2023/04/10 11:37:03;;;;;;;19.27;17.60;;;;;;;;;;5072396;28;20225;-87
2023/04/10 11:39:32;;;;;;;22.67;20.77;;;;;;;;;;5072469;28;20266;-87
2023/04/10 11:42:00;;;;;;;21.47;19.77;;;;;;;;;;5072847;28;20204;-88
2023/04/10 11:44:30;;;;;;;13.80;12.10;;;;;;;;;;5072014;28;20201;-87
2023/04/10 11:46:59;;;;;;;20.27;18.47;;;;;;;;;;5072306;28;20211;-87
2023/04/10 11:49:28;;;;;;;14.47;12.97;;;;;;;;;;5072786;28;20201;-87
2023/04/10 11:51:58;;;;;;;15.63;14.13;;;;;;;;;;5072171;28;20235;-89
2023/04/10 11:54:27;;;;;;;15.53;13.83;;;;;;;;;;5072424;28;20199;-86
2023/04/10 11:56:57;;;;;;;12.83;11.60;;;;;;;;;;5072141;28;20229;-87
2023/04/10 11:59:26;;;;;;;14.83;13.33;;;;;;;;;;5071886;28;20211;-87
2023/04/10 12:01:55;;;;;;;15.27;13.90;;;;;;;;;;5072190;28;20196;-87
2023/04/10 12:04:24;;;;;;;17.93;16.33;;;;;;;;;;5072228;28;20203;-87
2023/04/10 12:06:54;;;;;;;17.37;15.33;;;;;;;;;;5071435;28;20252;-87
2023/04/10 12:09:24;;;;;;;15.57;14.03;;;;;;;;;;5072352;28;20210;-87
2023/04/10 12:11:53;;;;;;;15.90;14.30;;;;;;;;;;5071669;28;20312;-88
2023/04/10 12:14:22;;;;;;;13.47;12.10;;;;;;;;;;5071305;28;20194;-87
2023/04/10 12:16:51;;;;;;;15.00;13.80;;;;;;;;;;5071738;28;20193;-87
2023/04/10 12:19:22;;;;;;;14.30;13.00;;;;;;;;;;5071824;28;20197;-88
2023/04/10 12:21:50;;;;;;;10.97;9.83;;;;;;;;;;5071782;28;20199;-88
2023/04/10 12:24:34;;;;;;;11.87;10.77;;;;;;;;;;5071037;28;20253;-88
2023/04/10 12:27:03;;;;;;;10.73;9.37;;;;;;;;;;5070391;28;20312;-88
2023/04/10 12:29:32;;;;;;;7.77;7.03;;;;;;;;;;5071508;28;20206;-88
2023/04/10 12:32:07;;;;;;;9.87;9.03;;;;;;;;;;5071229;28;20279;-88
2023/04/10 12:34:36;;;;;;;12.17;11.17;;;;;;;;;;5070908;28;20247;-88
2023/04/10 12:37:05;;;;;;;11.67;10.57;;;;;;;;;;5071368;28;20216;-87
2023/04/10 12:39:34;;;;;;;12.13;11.03;;;;;;;;;;5071368;28;20265;-88
2023/04/10 12:42:13;;;;;;;14.10;9.40;;;;;;;;;;5071839;28;20262;-88
2023/04/10 12:44:51;;;;;;;9.97;8.97;;;;;;;;;;5071496;28;20194;-88
2023/04/10 12:47:20;;;;;;;11.80;10.90;;;;;;;;;;5071585;28;20204;-88
2023/04/10 12:50:05;;;;;;;13.30;12.10;;;;;;;;;;5071543;28;20200;-88
2023/04/10 12:52:33;;;;;;;10.87;9.87;;;;;;;;;;5071494;28;20238;-88
2023/04/10 12:55:12;;;;;;;5.37;4.87;;;;;;;;;;5071513;28;20195;-88
2023/04/10 12:57:42;;;;;;;10.27;9.47;;;;;;;;;;5071412;28;20217;-88
2023/04/10 13:00:11;;;;;;;7.57;6.27;;;;;;;;;;5071115;28;20261;-88
2023/04/10 13:02:40;;;;;;;10.27;9.23;;;;;;;;;;5070937;28;20194;-88
2023/04/10 13:05:10;;;;;;;11.87;10.70;;;;;;;;;;5071139;28;20210;-88
2023/04/10 13:07:38;;;;;;;10.73;9.40;;;;;;;;;;5071339;28;20230;-88
2023/04/10 13:10:07;;;;;;;8.33;7.53;;;;;;;;;;5071403;28;20204;-88
2023/04/10 13:12:37;;;;;;;12.87;10.00;;;;;;;;;;5071445;28;20236;-88
2023/04/10 13:15:09;;;;;;;7.50;6.80;;;;;;;;;;5071084;28;20232;-88
2023/04/10 13:17:39;;;;;;;12.67;11.57;;;;;;;;;;5070924;28;20210;-88
2023/04/10 13:20:09;;;;;;;11.33;10.33;;;;;;;;;;5070903;28;20193;-87
2023/04/10 13:22:37;;;;;;;13.10;12.00;;;;;;;;;;5071315;28;20234;-88
2023/04/10 13:25:06;;;;;;;11.57;10.37;;;;;;;;;;5071540;28;20263;-88
2023/04/10 13:27:34;;;;;;;9.67;8.83;;;;;;;;;;5071015;28;20264;-88
2023/04/10 13:30:03;;;;;;;9.23;8.00;;;;;;;;;;5071205;28;20201;-87
2023/04/10 13:32:33;;;;;;;13.50;12.30;;;;;;;;;;5070582;28;20253;-87
2023/04/10 13:35:01;;;;;;;12.40;11.03;;;;;;;;;;5070764;28;20267;-88
2023/04/10 13:37:30;;;;;;;13.93;12.77;;;;;;;;;;5070855;28;20210;-87
2023/04/10 13:39:58;;;;;;;11.93;10.73;;;;;;;;;;5071138;28;20241;-88
2023/04/10 13:42:27;;;;;;;6.43;5.63;;;;;;;;;;5070911;28;20288;-89
2023/04/10 13:44:55;;;;;;;12.37;11.10;;;;;;;;;;5070917;28;20237;-88
2023/04/10 13:47:24;;;;;;;12.03;10.93;;;;;;;;;;5073171;28;20224;-88
2023/04/10 13:49:54;;;;;;;9.30;8.40;;;;;;;;;;5074449;28;20273;-87
2023/04/10 13:52:22;;;;;;;14.30;13.07;;;;;;;;;;5074596;28;20222;-88
2023/04/10 13:54:51;;;;;;;14.17;12.97;;;;;;;;;;5074678;28;20230;-89
2023/04/10 13:57:19;;;;;;;14.63;13.43;;;;;;;;;;5074515;28;20227;-88
2023/04/10 13:59:48;;;;;;;12.93;11.63;;;;;;;;;;5074346;28;20197;-87
2023/04/10 14:02:16;;;;;;;10.67;9.30;;;;;;;;;;5074350;28;20205;-88
2023/04/10 14:04:46;;;;;;;14.63;13.30;;;;;;;;;;5074581;28;20210;-88
2023/04/10 14:07:16;;;;;;;16.60;15.13;;;;;;;;;;5074176;28;20201;-88
2023/04/10 14:09:45;;;;;;;13.73;10.90;;;;;;;;;;5074236;28;20194;-88
2023/04/10 14:12:15;;;;;;;14.13;12.93;;;;;;;;;;5074272;28;20213;-88
2023/04/10 14:14:44;;;;;;;13.30;12.10;;;;;;;;;;5074349;28;20227;-88
2023/04/10 14:17:12;;;;;;;11.87;10.67;;;;;;;;;;5074289;28;20209;-88
2023/04/10 14:19:42;;;;;;;11.20;10.10;;;;;;;;;;5074224;28;20194;-88
2023/04/10 14:22:10;;;;;;;16.60;15.20;;;;;;;;;;5074226;28;20197;-88
2023/04/10 14:24:40;;;;;;;16.07;14.83;;;;;;;;;;5074039;28;20266;-88
2023/04/10 14:27:08;;;;;;;9.43;7.93;;;;;;;;;;5074052;28;20221;-88
2023/04/10 14:29:40;;;;;;;18.20;16.77;;;;;;;;;;5074288;28;20234;-88
2023/04/10 14:32:21;;;;;;;17.13;15.53;;;;;;;;;;5073955;28;20218;-88
2023/04/10 14:34:50;;;;;;;18.00;16.40;;;;;;;;;;5074040;28;20233;-88
2023/04/10 14:37:18;;;;;;;17.53;16.03;;;;;;;;;;5073828;28;20210;-88
2023/04/10 14:39:48;;;;;;;13.17;11.97;;;;;;;;;;5073843;28;20212;-89
2023/04/10 14:42:16;;;;;;;16.87;14.17;;;;;;;;;;5073823;28;20194;-88
2023/04/10 14:44:45;;;;;;;14.77;13.27;;;;;;;;;;5073801;28;20269;-89
2023/04/10 14:47:13;;;;;;;15.77;14.27;;;;;;;;;;5073715;28;20201;-88